LEVC/VLC METAR and TAF weather

Enter ICAO airport designator
Station Type Date Time Source
LEVC METAR 2022/07/03 15:00 UTC NOAA

LEVC 031500Z 09008KT 020V140 9999 FEW055 31/15 Q1016 NOSIG


Station Type Date Time Source
LEVC Decoded METAR 2022/07/03 15:00 UTC NOAA

Valencia / Aeropuerto, Spain (LEVC) 39-30N 000-28W 62M
Jul 03, 2022 - 11:00 AM EDT / 2022.07.03 1500 UTC
Wind: from the E (090 degrees) at 9 MPH (8 KT) (direction variable):0
Visibility: greater than 7 mile(s):0
Sky conditions: mostly clear
Temperature: 87 F (31 C)
Dew Point: 59 F (15 C)
Relative Humidity: 37%
Pressure (altimeter): 30.00 in. Hg (1016 hPa)
ob: LEVC 031500Z 09008KT 020V140 9999 FEW055 31/15 Q1016 NOSIG
cycle: 15

Station Type Date Time Source
LEVC TAF 2022/07/03 12:27 UTC NOAA

TAF LEVC 031100Z 0312/0412 10008KT 9999 FEW040 TX32/0313Z TN20/0406Z
TEMPO 0316/0320 VRB04KT
BECMG 0320/0322 VRB03KT
TEMPO 0312/0318 FEW060CB

Example: see airport list